Time;durP1;ratioP1;P1;durP2;ratioP2;P2;SDS_P1;SDS_P2;PMS_P1;PMS_P2;Temp;Humidity;BMP_temperature;BMP_pressure;BME280_temperature;BME280_humidity;BME280_pressure;Samples;Min_cycle;Max_cycle;Signal;HPM_P1;HPM_P2
2023/06/20 00:00:10;;;;;;;15.57;13.93;;;;;;;;;;4907013;28;20040;-83
2023/06/20 00:02:35;;;;;;;15.52;13.90;;;;;;;;;;4895060;28;20047;-83
2023/06/20 00:05:02;;;;;;;15.95;14.25;;;;;;;;;;4917125;28;20051;-83
2023/06/20 00:07:28;;;;;;;17.75;13.68;;;;;;;;;;4899835;28;20468;-83
2023/06/20 00:09:53;;;;;;;16.48;14.45;;;;;;;;;;4899033;28;20101;-83
2023/06/20 00:12:19;;;;;;;14.90;13.20;;;;;;;;;;4933081;28;20043;-83
2023/06/20 00:14:44;;;;;;;15.90;14.20;;;;;;;;;;4914826;28;20035;-83
2023/06/20 00:17:10;;;;;;;17.77;15.23;;;;;;;;;;4918341;28;20039;-83
2023/06/20 00:19:35;;;;;;;15.65;13.95;;;;;;;;;;4920037;28;20105;-84
2023/06/20 00:22:06;;;;;;;16.08;13.73;;;;;;;;;;4917871;28;20391;-83
2023/06/20 00:24:35;;;;;;;18.25;15.07;;;;;;;;;;4918619;28;20044;-82
2023/06/20 00:27:03;;;;;;;16.83;14.25;;;;;;;;;;4932194;28;20121;-82
2023/06/20 00:29:28;;;;;;;15.45;13.70;;;;;;;;;;4912229;28;20044;-82
2023/06/20 00:31:54;;;;;;;15.15;13.45;;;;;;;;;;4922142;29;20067;-83
2023/06/20 00:34:19;;;;;;;16.77;13.73;;;;;;;;;;4910284;28;20046;-83
2023/06/20 00:36:45;;;;;;;14.93;13.27;;;;;;;;;;4909439;29;21030;-83
2023/06/20 00:39:10;;;;;;;15.82;14.07;;;;;;;;;;4914968;28;20043;-83
2023/06/20 00:41:36;;;;;;;14.95;13.02;;;;;;;;;;4919023;28;20046;-83
2023/06/20 00:44:03;;;;;;;15.52;13.18;;;;;;;;;;4918600;28;20044;-83
2023/06/20 00:46:31;;;;;;;14.20;12.67;;;;;;;;;;4916290;29;20661;-84
2023/06/20 00:48:57;;;;;;;15.55;13.57;;;;;;;;;;4933683;28;20284;-83
2023/06/20 00:51:27;;;;;;;14.75;13.15;;;;;;;;;;4913408;29;20524;-83
2023/06/20 00:53:57;;;;;;;16.48;13.32;;;;;;;;;;4919074;28;20040;-83
2023/06/20 00:56:26;;;;;;;15.45;13.75;;;;;;;;;;4914997;28;20044;-83
2023/06/20 00:58:52;;;;;;;14.30;12.80;;;;;;;;;;4903798;28;20035;-84
2023/06/20 01:01:18;;;;;;;16.65;14.02;;;;;;;;;;4916816;28;20055;-83
2023/06/20 01:03:46;;;;;;;17.77;14.50;;;;;;;;;;4932791;28;20035;-83
2023/06/20 01:06:42;;;;;;;16.70;14.90;;;;;;;;;;4918618;28;20895;-84
2023/06/20 01:09:13;;;;;;;17.17;14.98;;;;;;;;;;4918176;28;20117;-83
2023/06/20 01:11:53;;;;;;;15.25;13.52;;;;;;;;;;4927855;28;20711;-83
2023/06/20 01:14:22;;;;;;;17.73;14.43;;;;;;;;;;4916840;28;20578;-83
2023/06/20 01:16:57;;;;;;;16.23;14.52;;;;;;;;;;4928499;28;20403;-84
2023/06/20 01:19:48;;;;;;;15.48;13.82;;;;;;;;;;4915392;28;20512;-83
2023/06/20 01:22:41;;;;;;;15.82;14.00;;;;;;;;;;4909957;28;20396;-83
2023/06/20 01:25:11;;;;;;;16.05;14.27;;;;;;;;;;4922350;28;20383;-83
2023/06/20 01:27:49;;;;;;;15.88;14.10;;;;;;;;;;4927442;28;20047;-83
2023/06/20 01:30:23;;;;;;;15.48;13.63;;;;;;;;;;4908927;28;20047;-82
2023/06/20 01:32:49;;;;;;;15.98;14.27;;;;;;;;;;4929102;28;20040;-83
2023/06/20 01:35:21;;;;;;;16.10;14.38;;;;;;;;;;4914433;28;21532;-83
2023/06/20 01:37:51;;;;;;;15.80;13.93;;;;;;;;;;4918188;28;20035;-83
2023/06/20 01:40:18;;;;;;;17.10;15.27;;;;;;;;;;4902266;28;20126;-83
2023/06/20 01:42:44;;;;;;;17.00;14.48;;;;;;;;;;4918815;28;20799;-83
2023/06/20 01:45:13;;;;;;;16.45;14.75;;;;;;;;;;4920752;28;20040;-83
2023/06/20 01:47:40;;;;;;;17.58;15.30;;;;;;;;;;4918487;28;20106;-83
2023/06/20 01:50:07;;;;;;;17.33;15.53;;;;;;;;;;4922129;28;20036;-83
2023/06/20 01:52:34;;;;;;;18.55;15.82;;;;;;;;;;4931989;28;20287;-83
2023/06/20 01:55:04;;;;;;;17.25;14.95;;;;;;;;;;4917310;29;20475;-83
2023/06/20 01:57:30;;;;;;;17.98;15.80;;;;;;;;;;4915689;29;20039;-83
2023/06/20 01:59:56;;;;;;;16.60;14.68;;;;;;;;;;4930714;28;20126;-83
2023/06/20 02:02:21;;;;;;;18.80;16.25;;;;;;;;;;4911005;28;20055;-83
2023/06/20 02:04:50;;;;;;;18.80;15.70;;;;;;;;;;4922044;28;20052;-84
2023/06/20 02:07:17;;;;;;;18.17;15.32;;;;;;;;;;4915096;28;20039;-84
2023/06/20 02:09:44;;;;;;;16.60;14.90;;;;;;;;;;4921066;28;20039;-83
2023/06/20 02:12:10;;;;;;;18.17;15.45;;;;;;;;;;4907641;28;20042;-83
2023/06/20 02:14:36;;;;;;;16.77;14.90;;;;;;;;;;4929800;28;20057;-84
2023/06/20 02:17:02;;;;;;;17.05;15.25;;;;;;;;;;4923716;28;20558;-83
2023/06/20 02:19:31;;;;;;;17.85;15.95;;;;;;;;;;4922539;29;20043;-84
2023/06/20 02:21:57;;;;;;;16.63;14.85;;;;;;;;;;4936705;28;20115;-83
2023/06/20 02:24:23;;;;;;;17.33;15.52;;;;;;;;;;4923792;28;20567;-83
2023/06/20 02:26:49;;;;;;;18.17;15.52;;;;;;;;;;4936725;28;20040;-83
2023/06/20 02:29:15;;;;;;;16.95;15.15;;;;;;;;;;4918162;28;20514;-83
2023/06/20 02:31:45;;;;;;;17.20;15.27;;;;;;;;;;4921864;28;20379;-82
2023/06/20 02:34:14;;;;;;;17.05;15.23;;;;;;;;;;4917259;28;20040;-83
2023/06/20 02:36:42;;;;;;;16.48;14.68;;;;;;;;;;4907554;28;20027;-83
2023/06/20 02:39:07;;;;;;;17.30;15.30;;;;;;;;;;4921069;28;20499;-83
2023/06/20 02:41:33;;;;;;;16.45;14.75;;;;;;;;;;4920083;28;20035;-83
2023/06/20 02:43:58;;;;;;;17.10;15.30;;;;;;;;;;4920748;29;20050;-84
2023/06/20 02:46:54;;;;;;;17.95;15.38;;;;;;;;;;4923013;28;20044;-83
2023/06/20 02:49:56;;;;;;;16.98;15.18;;;;;;;;;;4923527;28;20044;-83
2023/06/20 02:52:27;;;;;;;17.10;15.23;;;;;;;;;;4922908;28;20039;-83
2023/06/20 02:55:10;;;;;;;16.58;14.73;;;;;;;;;;4924757;28;20043;-83
2023/06/20 02:57:44;;;;;;;17.30;14.55;;;;;;;;;;4923925;28;20039;-83
2023/06/20 03:00:10;;;;;;;16.33;14.60;;;;;;;;;;4919125;28;20050;-84
2023/06/20 03:02:44;;;;;;;17.17;15.38;;;;;;;;;;4923942;29;20476;-84
2023/06/20 03:05:13;;;;;;;19.02;15.63;;;;;;;;;;4922722;28;20115;-83
2023/06/20 03:07:41;;;;;;;18.75;15.68;;;;;;;;;;4922600;28;20035;-84
2023/06/20 03:10:08;;;;;;;17.73;15.82;;;;;;;;;;4918612;28;20046;-84
2023/06/20 03:12:36;;;;;;;17.48;15.23;;;;;;;;;;4928120;28;20635;-83
2023/06/20 03:15:01;;;;;;;19.55;15.32;;;;;;;;;;4907431;28;20072;-84
2023/06/20 03:17:26;;;;;;;17.45;15.57;;;;;;;;;;4916244;29;20145;-84
2023/06/20 03:19:52;;;;;;;17.08;15.27;;;;;;;;;;4929737;28;20513;-84
2023/06/20 03:22:17;;;;;;;17.23;15.35;;;;;;;;;;4906973;28;20126;-84
2023/06/20 03:24:45;;;;;;;18.00;15.32;;;;;;;;;;4934749;28;20567;-83
2023/06/20 03:27:11;;;;;;;22.10;16.42;;;;;;;;;;4918613;28;20043;-83
2023/06/20 03:29:36;;;;;;;16.88;15.05;;;;;;;;;;4927236;28;20498;-83
2023/06/20 03:32:02;;;;;;;17.25;15.45;;;;;;;;;;4900082;28;20051;-83
2023/06/20 03:34:30;;;;;;;17.42;15.52;;;;;;;;;;4935060;28;20044;-84
2023/06/20 03:36:56;;;;;;;18.45;15.75;;;;;;;;;;4923503;28;20492;-83
2023/06/20 03:39:21;;;;;;;18.02;15.30;;;;;;;;;;4921357;28;20047;-84
2023/06/20 03:41:47;;;;;;;17.70;15.80;;;;;;;;;;4915221;28;20160;-84
2023/06/20 03:44:12;;;;;;;16.48;14.77;;;;;;;;;;4915378;28;20470;-83
2023/06/20 03:46:38;;;;;;;19.30;15.90;;;;;;;;;;4910880;28;20863;-84
2023/06/20 03:49:06;;;;;;;17.63;15.35;;;;;;;;;;4912025;28;20153;-83
2023/06/20 03:51:32;;;;;;;17.65;15.75;;;;;;;;;;4933486;28;20039;-84
2023/06/20 03:53:57;;;;;;;17.65;15.80;;;;;;;;;;4923769;29;20042;-83
2023/06/20 03:56:33;;;;;;;17.98;16.08;;;;;;;;;;4933719;29;20075;-84
2023/06/20 03:58:58;;;;;;;18.45;15.57;;;;;;;;;;4921508;28;20098;-84
2023/06/20 04:01:24;;;;;;;19.17;16.42;;;;;;;;;;4914503;28;20043;-83
2023/06/20 04:03:50;;;;;;;18.45;15.63;;;;;;;;;;4918360;28;20063;-84
2023/06/20 04:06:15;;;;;;;21.00;15.63;;;;;;;;;;4913108;28;20048;-83
2023/06/20 04:08:42;;;;;;;17.33;15.38;;;;;;;;;;4918427;28;20439;-85
2023/06/20 04:11:08;;;;;;;17.25;14.73;;;;;;;;;;4917150;28;20046;-85
2023/06/20 04:13:38;;;;;;;17.20;15.40;;;;;;;;;;4899638;29;20492;-84
2023/06/20 04:16:03;;;;;;;16.35;14.60;;;;;;;;;;4903497;28;20047;-84
2023/06/20 04:18:29;;;;;;;18.63;15.70;;;;;;;;;;4895696;29;20126;-85
2023/06/20 04:20:57;;;;;;;18.90;15.75;;;;;;;;;;4909841;28;20074;-85
2023/06/20 04:23:22;;;;;;;17.02;14.85;;;;;;;;;;4916928;28;20669;-85
2023/06/20 04:25:48;;;;;;;16.90;15.10;;;;;;;;;;4932687;28;20047;-85
2023/06/20 04:28:17;;;;;;;17.15;15.30;;;;;;;;;;4916517;29;20118;-85
2023/06/20 04:30:42;;;;;;;17.83;15.38;;;;;;;;;;4918370;28;20079;-85
2023/06/20 04:33:08;;;;;;;17.40;15.52;;;;;;;;;;4924028;28;20044;-85
2023/06/20 04:35:36;;;;;;;17.33;15.52;;;;;;;;;;4920240;28;20045;-86
2023/06/20 04:38:03;;;;;;;17.65;15.75;;;;;;;;;;4915248;29;20411;-85
2023/06/20 04:40:29;;;;;;;18.42;16.40;;;;;;;;;;4929581;28;20035;-86
2023/06/20 04:43:00;;;;;;;17.92;15.45;;;;;;;;;;4908539;29;20048;-86
2023/06/20 04:45:25;;;;;;;17.67;15.10;;;;;;;;;;4922601;28;20047;-85
2023/06/20 04:47:50;;;;;;;18.10;16.00;;;;;;;;;;4919402;28;20050;-85
2023/06/20 04:50:16;;;;;;;17.52;15.50;;;;;;;;;;4917518;28;20032;-86
2023/06/20 04:52:42;;;;;;;17.10;15.05;;;;;;;;;;4904455;28;20043;-86
2023/06/20 04:55:08;;;;;;;20.30;16.20;;;;;;;;;;4917686;28;20039;-84
2023/06/20 04:57:34;;;;;;;18.77;15.25;;;;;;;;;;4925681;28;20038;-84
2023/06/20 05:00:00;;;;;;;16.98;15.10;;;;;;;;;;4933168;28;20095;-84
2023/06/20 05:02:25;;;;;;;17.25;15.45;;;;;;;;;;4916690;28;20063;-85
2023/06/20 05:04:51;;;;;;;17.40;15.57;;;;;;;;;;4919184;28;20031;-85
2023/06/20 05:07:17;;;;;;;18.73;16.05;;;;;;;;;;4901954;28;20106;-84
2023/06/20 05:09:43;;;;;;;17.65;15.73;;;;;;;;;;4916409;28;20035;-84
2023/06/20 05:12:09;;;;;;;17.10;15.02;;;;;;;;;;4915724;28;20039;-84
2023/06/20 05:14:34;;;;;;;18.60;15.95;;;;;;;;;;4903009;28;20043;-84
2023/06/20 05:16:59;;;;;;;18.67;15.50;;;;;;;;;;4910829;29;20051;-84
2023/06/20 05:19:25;;;;;;;16.75;14.23;;;;;;;;;;4919393;28;20514;-84
2023/06/20 05:21:50;;;;;;;17.92;15.52;;;;;;;;;;4913949;28;20519;-84
2023/06/20 05:24:16;;;;;;;17.55;14.60;;;;;;;;;;4909420;28;20043;-83
2023/06/20 05:26:41;;;;;;;17.70;14.65;;;;;;;;;;4912565;28;20048;-83
2023/06/20 05:29:07;;;;;;;15.32;13.65;;;;;;;;;;4906688;28;20392;-84
2023/06/20 05:31:52;;;;;;;17.02;13.68;;;;;;;;;;4911004;28;20468;-84
2023/06/20 05:34:21;;;;;;;18.42;14.43;;;;;;;;;;4863888;29;20417;-84
2023/06/20 05:36:47;;;;;;;17.52;15.30;;;;;;;;;;4863885;29;20413;-83
2023/06/20 05:39:13;;;;;;;17.73;14.57;;;;;;;;;;4849667;29;20052;-84
2023/06/20 05:41:39;;;;;;;17.13;14.65;;;;;;;;;;4847781;29;20072;-83
2023/06/20 05:44:04;;;;;;;18.50;15.43;;;;;;;;;;4854256;29;20774;-83
2023/06/20 05:46:56;;;;;;;18.65;15.45;;;;;;;;;;4881005;29;20101;-84
2023/06/20 05:49:21;;;;;;;20.75;15.45;;;;;;;;;;4845706;29;20057;-84
2023/06/20 05:51:47;;;;;;;17.55;15.15;;;;;;;;;;4818712;29;20033;-84
2023/06/20 05:54:13;;;;;;;18.35;15.43;;;;;;;;;;4831857;29;20037;-83
2023/06/20 05:56:39;;;;;;;17.98;14.52;;;;;;;;;;4836576;29;20503;-84
2023/06/20 05:59:05;;;;;;;17.75;14.63;;;;;;;;;;4842827;29;20041;-84
2023/06/20 06:01:30;;;;;;;18.88;15.52;;;;;;;;;;4827895;29;20049;-84
2023/06/20 06:03:55;;;;;;;18.13;14.80;;;;;;;;;;4821016;29;20052;-84
2023/06/20 06:06:21;;;;;;;19.35;15.50;;;;;;;;;;4831683;29;20054;-83
2023/06/20 06:08:46;;;;;;;18.58;15.43;;;;;;;;;;4828795;29;20628;-83
2023/06/20 06:11:12;;;;;;;17.98;14.93;;;;;;;;;;4827756;29;20045;-83
2023/06/20 06:13:39;;;;;;;18.15;14.35;;;;;;;;;;4835843;29;20117;-83
2023/06/20 06:16:05;;;;;;;18.75;14.70;;;;;;;;;;4847098;29;20053;-83
2023/06/20 06:18:31;;;;;;;17.25;14.82;;;;;;;;;;4832064;29;20593;-84
2023/06/20 06:20:56;;;;;;;15.95;13.73;;;;;;;;;;4846277;29;20162;-83
2023/06/20 06:23:22;;;;;;;18.02;15.27;;;;;;;;;;4856868;29;20132;-84
2023/06/20 06:25:47;;;;;;;17.17;15.25;;;;;;;;;;4880550;28;20050;-84
2023/06/20 06:28:23;;;;;;;15.73;13.77;;;;;;;;;;4917728;28;20078;-84
2023/06/20 06:30:49;;;;;;;17.30;14.45;;;;;;;;;;4889200;29;20826;-83
2023/06/20 06:33:14;;;;;;;19.90;14.85;;;;;;;;;;4917344;28;20040;-84
2023/06/20 06:35:40;;;;;;;16.20;14.20;;;;;;;;;;4914591;28;20050;-84
2023/06/20 06:38:06;;;;;;;16.27;14.02;;;;;;;;;;4907246;28;20146;-83
2023/06/20 06:40:37;;;;;;;20.08;15.65;;;;;;;;;;4921015;28;20062;-83
2023/06/20 06:43:03;;;;;;;21.45;16.63;;;;;;;;;;4909875;28;20464;-83
2023/06/20 06:45:28;;;;;;;18.40;15.15;;;;;;;;;;4930144;28;20046;-84
2023/06/20 06:47:54;;;;;;;17.60;14.43;;;;;;;;;;4908407;28;20572;-84
2023/06/20 06:50:20;;;;;;;19.13;15.80;;;;;;;;;;4916841;28;20424;-84
2023/06/20 06:52:45;;;;;;;24.42;20.90;;;;;;;;;;4905707;28;20039;-83
2023/06/20 06:55:11;;;;;;;20.45;16.52;;;;;;;;;;4913265;28;20541;-83
2023/06/20 06:57:36;;;;;;;17.83;15.60;;;;;;;;;;4921924;28;20130;-83
2023/06/20 07:00:12;;;;;;;17.92;15.82;;;;;;;;;;4917302;29;20066;-82
2023/06/20 07:02:41;;;;;;;19.15;14.93;;;;;;;;;;4916304;28;20039;-83
2023/06/20 07:05:06;;;;;;;25.85;19.05;;;;;;;;;;4915445;28;20054;-82
2023/06/20 07:07:32;;;;;;;21.33;17.30;;;;;;;;;;4928623;28;20031;-82
2023/06/20 07:10:03;;;;;;;25.60;17.38;;;;;;;;;;4917891;29;20043;-82
2023/06/20 07:12:29;;;;;;;17.95;15.63;;;;;;;;;;4895833;28;20102;-82
2023/06/20 07:14:56;;;;;;;18.83;15.40;;;;;;;;;;4919671;28;20039;-83
2023/06/20 07:17:23;;;;;;;18.35;14.95;;;;;;;;;;4934292;28;20123;-83
2023/06/20 07:19:52;;;;;;;16.48;14.13;;;;;;;;;;4917473;28;20106;-82
2023/06/20 07:22:18;;;;;;;17.08;15.27;;;;;;;;;;4918995;28;20733;-82
2023/06/20 07:24:43;;;;;;;19.25;16.67;;;;;;;;;;4919027;28;20423;-83
2023/06/20 07:27:09;;;;;;;21.50;17.90;;;;;;;;;;4915961;29;20047;-82
2023/06/20 07:29:34;;;;;;;17.10;15.30;;;;;;;;;;4932931;28;20452;-81
2023/06/20 07:32:00;;;;;;;16.75;14.65;;;;;;;;;;4910506;29;20140;-82
2023/06/20 07:34:25;;;;;;;16.60;14.20;;;;;;;;;;4916670;28;20047;-82
2023/06/20 07:36:55;;;;;;;16.67;14.35;;;;;;;;;;4923226;28;20122;-81
2023/06/20 07:39:21;;;;;;;16.52;14.70;;;;;;;;;;4911013;28;20041;-81
2023/06/20 07:41:46;;;;;;;17.02;15.23;;;;;;;;;;4921401;28;20491;-81
2023/06/20 07:44:15;;;;;;;17.20;15.35;;;;;;;;;;4923941;28;20509;-81
2023/06/20 07:46:41;;;;;;;18.23;15.93;;;;;;;;;;4914600;28;20044;-81
2023/06/20 07:49:06;;;;;;;16.67;14.98;;;;;;;;;;4917783;28;20043;-82
2023/06/20 07:51:36;;;;;;;17.60;14.95;;;;;;;;;;4910253;28;20502;-81
2023/06/20 07:54:04;;;;;;;16.58;14.45;;;;;;;;;;4920803;29;20499;-82
2023/06/20 07:56:30;;;;;;;19.60;14.43;;;;;;;;;;4929398;29;20038;-81
2023/06/20 07:58:55;;;;;;;18.73;15.98;;;;;;;;;;4919112;28;20527;-84
2023/06/20 08:01:33;;;;;;;19.38;15.18;;;;;;;;;;4903864;28;20047;-81
2023/06/20 08:04:00;;;;;;;18.52;15.15;;;;;;;;;;4923274;28;20063;-81
2023/06/20 08:06:25;;;;;;;17.00;14.90;;;;;;;;;;4903518;28;20048;-81
2023/06/20 08:08:51;;;;;;;17.67;14.52;;;;;;;;;;4925603;28;20035;-82
2023/06/20 08:11:23;;;;;;;471.13;61.05;;;;;;;;;;4914903;28;20062;-81
2023/06/20 08:13:49;;;;;;;1270.05;225.07;;;;;;;;;;4898212;28;20123;-83
2023/06/20 08:16:23;;;;;;;561.05;94.57;;;;;;;;;;4911387;28;20142;-82
2023/06/20 08:18:49;;;;;;;108.20;26.33;;;;;;;;;;4933475;28;20102;-81
2023/06/20 08:21:14;;;;;;;58.22;21.55;;;;;;;;;;4908062;28;20047;-82
2023/06/20 08:23:44;;;;;;;19.48;14.75;;;;;;;;;;4897718;28;20031;-81
2023/06/20 08:26:09;;;;;;;18.85;15.02;;;;;;;;;;4907428;28;20151;-81
2023/06/20 08:28:34;;;;;;;20.17;14.70;;;;;;;;;;4917946;28;20235;-82
2023/06/20 08:31:00;;;;;;;18.02;14.52;;;;;;;;;;4932482;28;20051;-82
2023/06/20 08:33:25;;;;;;;22.02;15.00;;;;;;;;;;4911964;28;20047;-81
2023/06/20 08:35:51;;;;;;;31.83;15.27;;;;;;;;;;4925841;28;20039;-82
2023/06/20 08:38:17;;;;;;;16.10;12.82;;;;;;;;;;4917921;29;20031;-81
2023/06/20 08:40:42;;;;;;;16.60;14.73;;;;;;;;;;4918941;28;20522;-81
2023/06/20 08:43:13;;;;;;;16.98;14.85;;;;;;;;;;4904548;28;20412;-82
2023/06/20 08:45:40;;;;;;;19.70;16.00;;;;;;;;;;4902327;28;20726;-81
2023/06/20 08:48:09;;;;;;;18.38;14.98;;;;;;;;;;4920227;28;20408;-81
2023/06/20 08:50:36;;;;;;;18.67;14.63;;;;;;;;;;4903142;28;20032;-82
2023/06/20 08:53:04;;;;;;;17.80;14.98;;;;;;;;;;4933013;28;20038;-82
2023/06/20 08:55:50;;;;;;;18.85;15.80;;;;;;;;;;4917943;28;21235;-82
2023/06/20 08:58:16;;;;;;;19.77;15.93;;;;;;;;;;4879543;29;20056;-81
2023/06/20 09:01:01;;;;;;;20.08;16.80;;;;;;;;;;4848207;29;20037;-82
2023/06/20 09:03:27;;;;;;;19.55;17.17;;;;;;;;;;4853218;29;20063;-81
2023/06/20 09:05:52;;;;;;;20.42;16.50;;;;;;;;;;4848970;29;20048;-81
2023/06/20 09:08:18;;;;;;;18.98;16.92;;;;;;;;;;4851199;29;20048;-80
2023/06/20 09:10:44;;;;;;;19.75;17.63;;;;;;;;;;4854123;29;20124;-81
2023/06/20 09:13:12;;;;;;;19.07;17.00;;;;;;;;;;4859421;29;20052;-83
2023/06/20 09:15:38;;;;;;;19.45;15.73;;;;;;;;;;4864520;29;20192;-81
2023/06/20 09:18:06;;;;;;;17.42;14.88;;;;;;;;;;4856042;29;20155;-82
2023/06/20 09:20:32;;;;;;;17.63;15.70;;;;;;;;;;4854962;29;20493;-81
2023/06/20 09:22:58;;;;;;;18.05;15.57;;;;;;;;;;4841993;29;20057;-82
2023/06/20 09:25:26;;;;;;;17.85;15.95;;;;;;;;;;4845614;29;20039;-82
2023/06/20 09:27:53;;;;;;;17.75;15.85;;;;;;;;;;4854714;29;20088;-82
2023/06/20 09:30:18;;;;;;;17.92;15.73;;;;;;;;;;4864204;29;20053;-83
2023/06/20 09:32:54;;;;;;;19.83;16.52;;;;;;;;;;4855142;29;20080;-82
2023/06/20 09:35:20;;;;;;;19.00;16.92;;;;;;;;;;4891767;28;20044;-82
2023/06/20 09:37:51;;;;;;;20.90;16.77;;;;;;;;;;4911151;28;20126;-82
2023/06/20 09:40:19;;;;;;;21.05;17.77;;;;;;;;;;4911353;28;20403;-83
2023/06/20 09:42:45;;;;;;;21.13;18.13;;;;;;;;;;4920653;28;20391;-82
2023/06/20 09:45:13;;;;;;;24.83;19.20;;;;;;;;;;4916515;28;20038;-82
2023/06/20 09:47:39;;;;;;;;;;;;;;;;;;4901087;28;20039;-82
2023/06/20 09:50:09;;;;;;;22.30;18.77;;;;;;;;;;4918262;28;20293;-82
2023/06/20 09:52:44;;;;;;;24.33;20.27;;;;;;;;;;4920331;28;20090;-82
2023/06/20 09:55:11;;;;;;;22.73;19.98;;;;;;;;;;4928948;28;20066;-83
2023/06/20 09:58:05;;;;;;;;;;;;;;;;;;4921293;28;20150;-82
2023/06/20 10:00:31;;;;;;;27.90;21.52;;;;;;;;;;4931546;28;19922;-82
2023/06/20 10:03:01;;;;;;;25.52;21.15;;;;;;;;;;4909836;29;20046;-82
2023/06/20 10:05:27;;;;;;;28.95;22.98;;;;;;;;;;4894522;28;20518;-82
2023/06/20 10:07:57;;;;;;;26.90;23.08;;;;;;;;;;4908965;28;20043;-82
2023/06/20 10:10:23;;;;;;;34.47;24.63;;;;;;;;;;4906923;28;20035;-81
2023/06/20 10:12:49;;;;;;;27.65;22.70;;;;;;;;;;4918156;28;20036;-83
2023/06/20 10:15:15;;;;;;;27.65;23.77;;;;;;;;;;4907782;28;20504;-83
2023/06/20 10:17:42;;;;;;;29.55;24.30;;;;;;;;;;4906124;28;20036;-80
2023/06/20 10:20:23;;;;;;;28.17;22.90;;;;;;;;;;4929296;28;20518;-81
2023/06/20 10:22:51;;;;;;;30.00;23.90;;;;;;;;;;4901286;28;20444;-80
2023/06/20 10:25:20;;;;;;;28.67;23.48;;;;;;;;;;4914656;28;20464;-79
2023/06/20 10:28:03;;;;;;;30.90;24.23;;;;;;;;;;4902665;28;20126;-81
2023/06/20 10:30:46;;;;;;;27.58;22.60;;;;;;;;;;4894963;28;20122;-80
2023/06/20 10:33:19;;;;;;;27.90;23.15;;;;;;;;;;4937736;28;20057;-81
2023/06/20 10:36:09;;;;;;;27.80;23.00;;;;;;;;;;4907770;28;20095;-81
2023/06/20 10:38:40;;;;;;;40.97;24.55;;;;;;;;;;4932280;28;20035;-81
2023/06/20 10:41:12;;;;;;;30.70;24.40;;;;;;;;;;4933401;28;20442;-82
2023/06/20 10:43:54;;;;;;;30.20;24.35;;;;;;;;;;4910220;29;20098;-82
2023/06/20 10:46:31;;;;;;;29.08;23.95;;;;;;;;;;4920531;28;20047;-83
2023/06/20 10:48:57;;;;;;;28.58;24.25;;;;;;;;;;4900168;28;20050;-82
2023/06/20 10:51:23;;;;;;;30.15;24.13;;;;;;;;;;4919167;28;20047;-82
2023/06/20 10:53:48;;;;;;;27.90;23.45;;;;;;;;;;4935827;28;20487;-81
2023/06/20 10:56:26;;;;;;;31.33;25.10;;;;;;;;;;4919333;29;20038;-82
2023/06/20 10:58:52;;;;;;;32.45;24.95;;;;;;;;;;4920238;28;20063;-82
2023/06/20 11:01:18;;;;;;;31.40;25.00;;;;;;;;;;4916330;28;20071;-82
2023/06/20 11:03:46;;;;;;;33.13;25.35;;;;;;;;;;4913236;28;20039;-81
2023/06/20 11:06:18;;;;;;;33.47;26.27;;;;;;;;;;4915518;28;20054;-81
2023/06/20 11:08:45;;;;;;;37.28;25.98;;;;;;;;;;4908463;28;20122;-82
2023/06/20 11:11:10;;;;;;;33.65;25.65;;;;;;;;;;4911246;28;20070;-82
2023/06/20 11:13:45;;;;;;;30.98;25.67;;;;;;;;;;4919751;28;20503;-82
2023/06/20 11:16:18;;;;;;;31.67;25.33;;;;;;;;;;4919729;28;20039;-82
2023/06/20 11:18:44;;;;;;;29.98;24.65;;;;;;;;;;4935910;28;20043;-82
2023/06/20 11:21:09;;;;;;;30.60;24.92;;;;;;;;;;4922788;28;20094;-82
2023/06/20 11:23:35;;;;;;;31.60;26.05;;;;;;;;;;4912124;28;20036;-82
2023/06/20 11:26:00;;;;;;;29.77;25.08;;;;;;;;;;4927377;29;20035;-82
2023/06/20 11:28:26;;;;;;;31.20;25.50;;;;;;;;;;4918547;28;20415;-84
2023/06/20 11:30:52;;;;;;;37.30;21.88;;;;;;;;;;4914607;28;20040;-81
2023/06/20 11:33:18;;;;;;;28.73;23.20;;;;;;;;;;4913471;28;20055;-82
2023/06/20 11:35:44;;;;;;;29.20;23.02;;;;;;;;;;4920305;28;20019;-82
2023/06/20 11:38:14;;;;;;;29.08;23.40;;;;;;;;;;4909335;29;20526;-82
2023/06/20 11:40:42;;;;;;;30.77;22.45;;;;;;;;;;4912920;28;20115;-81
2023/06/20 11:43:18;;;;;;;31.90;23.17;;;;;;;;;;4915551;28;20040;-81
2023/06/20 11:45:44;;;;;;;26.58;22.13;;;;;;;;;;4916586;28;20043;-82
2023/06/20 11:48:11;;;;;;;27.73;22.13;;;;;;;;;;4932070;28;20095;-82
2023/06/20 11:50:37;;;;;;;25.13;21.45;;;;;;;;;;4925922;28;20553;-82
2023/06/20 11:53:03;;;;;;;26.67;22.08;;;;;;;;;;4908211;29;20049;-83
2023/06/20 11:56:07;;;;;;;31.40;23.08;;;;;;;;;;4903124;28;20569;-82
2023/06/20 11:58:41;;;;;;;24.95;21.30;;;;;;;;;;4917267;29;20050;-82
2023/06/20 12:01:13;;;;;;;23.95;21.05;;;;;;;;;;4916353;28;20056;-83
2023/06/20 12:03:41;;;;;;;24.02;20.90;;;;;;;;;;4922990;28;20547;-82
2023/06/20 12:06:25;;;;;;;;;;;;;;;;;;4915695;29;20051;-82
2023/06/20 12:08:57;;;;;;;22.60;18.80;;;;;;;;;;4925842;28;19929;-83
2023/06/20 12:11:23;;;;;;;23.17;19.30;;;;;;;;;;4915453;28;20039;-82
2023/06/20 12:13:49;;;;;;;21.48;19.20;;;;;;;;;;4914540;28;20036;-82
2023/06/20 12:16:14;;;;;;;21.55;18.77;;;;;;;;;;4918639;28;20392;-82
2023/06/20 12:18:40;;;;;;;22.00;19.45;;;;;;;;;;4916140;28;20040;-82
2023/06/20 12:21:05;;;;;;;20.20;17.63;;;;;;;;;;4905823;28;20138;-81
2023/06/20 12:23:31;;;;;;;19.42;16.42;;;;;;;;;;4935183;28;20051;-82
2023/06/20 12:25:57;;;;;;;208.73;35.50;;;;;;;;;;4924912;28;20035;-82
2023/06/20 12:28:43;;;;;;;24.65;16.70;;;;;;;;;;4920615;28;21697;-82
2023/06/20 12:31:11;;;;;;;18.63;16.52;;;;;;;;;;4869096;29;20041;-81
2023/06/20 12:33:36;;;;;;;;;;;;;;;;;;4870949;29;20041;-82
2023/06/20 12:36:02;;;;;;;16.27;14.05;;;;;;;;;;4870729;29;20022;-82
2023/06/20 12:38:29;;;;;;;21.15;15.18;;;;;;;;;;4854536;29;20041;-81
2023/06/20 12:40:55;;;;;;;18.10;14.95;;;;;;;;;;4829324;29;20041;-80
2023/06/20 12:43:20;;;;;;;17.60;15.68;;;;;;;;;;4854004;29;20048;-80
2023/06/20 12:45:46;;;;;;;16.92;14.43;;;;;;;;;;4824984;29;20167;-80
2023/06/20 12:48:12;;;;;;;15.52;13.88;;;;;;;;;;4832594;29;20918;-80
2023/06/20 12:50:37;;;;;;;16.67;13.57;;;;;;;;;;4841259;29;20033;-81
2023/06/20 12:53:06;;;;;;;15.38;12.75;;;;;;;;;;4854013;29;20132;-81
2023/06/20 12:55:32;;;;;;;17.00;13.98;;;;;;;;;;4832634;29;20591;-81
2023/06/20 12:57:58;;;;;;;16.65;14.88;;;;;;;;;;4840497;29;20060;-80
2023/06/20 13:00:24;;;;;;;15.57;13.23;;;;;;;;;;4811460;29;20860;-82
2023/06/20 13:02:52;;;;;;;15.90;14.20;;;;;;;;;;4859361;29;20049;-81
2023/06/20 13:05:18;;;;;;;17.17;14.27;;;;;;;;;;4851630;29;20045;-81
2023/06/20 13:07:44;;;;;;;15.55;13.15;;;;;;;;;;4864162;29;20344;-82
2023/06/20 13:10:10;;;;;;;16.50;14.70;;;;;;;;;;4915010;28;20043;-82
2023/06/20 13:12:35;;;;;;;14.60;12.82;;;;;;;;;;4909127;28;20046;-82
2023/06/20 13:15:02;;;;;;;14.52;12.90;;;;;;;;;;4906206;29;20051;-81
2023/06/20 13:17:58;;;;;;;15.65;13.05;;;;;;;;;;4933665;28;20047;-81
2023/06/20 13:20:27;;;;;;;15.18;12.00;;;;;;;;;;4908483;28;20040;-80
2023/06/20 13:22:53;;;;;;;12.95;11.07;;;;;;;;;;4900908;28;20248;-80
2023/06/20 13:25:19;;;;;;;13.75;11.60;;;;;;;;;;4912501;28;20139;-80
2023/06/20 13:27:46;;;;;;;14.10;11.23;;;;;;;;;;4912631;28;20035;-81
2023/06/20 13:30:15;;;;;;;12.65;11.27;;;;;;;;;;4896665;29;20050;-81
2023/06/20 13:32:41;;;;;;;11.48;10.27;;;;;;;;;;4917669;28;20122;-81
2023/06/20 13:35:07;;;;;;;11.95;9.82;;;;;;;;;;4902434;28;20047;-81
2023/06/20 13:37:37;;;;;;;15.55;12.55;;;;;;;;;;4917053;29;20038;-82
2023/06/20 13:40:07;;;;;;;24.70;21.92;;;;;;;;;;4920784;29;20039;-81
2023/06/20 13:42:42;;;;;;;12.27;10.90;;;;;;;;;;4914304;29;20066;-82
2023/06/20 13:45:10;;;;;;;14.02;10.90;;;;;;;;;;4912556;28;20287;-81
2023/06/20 13:47:36;;;;;;;107.97;21.10;;;;;;;;;;4902201;28;20031;-80
2023/06/20 13:50:02;;;;;;;93.20;22.52;;;;;;;;;;4908699;29;20032;-83
2023/06/20 13:52:32;;;;;;;16.90;11.80;;;;;;;;;;4918282;29;20046;-81
2023/06/20 13:54:57;;;;;;;13.73;11.32;;;;;;;;;;4898138;29;20065;-81
2023/06/20 13:57:23;;;;;;;10.90;9.80;;;;;;;;;;4932387;28;20100;-81
2023/06/20 13:59:51;;;;;;;11.02;9.20;;;;;;;;;;4917421;28;20036;-81
2023/06/20 14:02:16;;;;;;;11.25;9.95;;;;;;;;;;4918959;28;20044;-83
2023/06/20 14:04:43;;;;;;;12.18;10.45;;;;;;;;;;4906381;28;20035;-82
2023/06/20 14:07:09;;;;;;;13.57;10.52;;;;;;;;;;4905819;28;20101;-81
2023/06/20 14:09:35;;;;;;;20.40;12.38;;;;;;;;;;4910203;28;20039;-82
2023/06/20 14:12:02;;;;;;;16.88;11.27;;;;;;;;;;4913325;29;20056;-82
2023/06/20 14:14:30;;;;;;;120.50;24.50;;;;;;;;;;4917037;28;20035;-81
2023/06/20 14:16:56;;;;;;;137.90;28.95;;;;;;;;;;4897736;29;20060;-81
2023/06/20 14:19:21;;;;;;;23.83;12.77;;;;;;;;;;4910056;29;20078;-81
2023/06/20 14:21:55;;;;;;;21.67;12.98;;;;;;;;;;4926068;28;20042;-81
2023/06/20 14:24:20;;;;;;;17.80;11.65;;;;;;;;;;4931351;28;20055;-81